Center Point, South Dakota
Current Conditions -  °F | °C
As of 4:35 PM on Wednesday 22 Oct 2014 (Local Time) from KYKN Reporting Station
Scattered Clouds Scattered Clouds  
Wind Chill: 57°   Ceiling: Unl
Heat Index: 57°   Visibility: 5mi
Dew Point: 55°   Wind: 6mph
Humidity: 94%   Direction: 140°SE
Pressure: 29.97"   Gusts: NA
Location:  43.1951°N, 97.1515°W
Report Text: KYKN 222135Z AUTO 14005KT 5SM SCT032 SCT045 14/13 A2997 RMK AO1 P0011
Loading
Personal Weather Stations






























Interactive Weather Map
Tropical Storm Tracking
New forecast layout! Learn more

10-Day Weather Forecast

Advertisements
Track Severe Weather on mobile